createdAt,value
2023-09-25T00:00:29.283Z,102510.43
2023-09-25T00:00:59.711Z,102508.09
2023-09-25T00:01:30.129Z,102510.43
2023-09-25T00:02:00.533Z,102510.45
2023-09-25T00:02:30.960Z,102509.60
2023-09-25T00:03:01.765Z,102510.09
2023-09-25T00:03:32.527Z,102514.16
2023-09-25T00:04:03.072Z,102511.12
2023-09-25T00:04:33.615Z,102513.14
2023-09-25T00:05:04.056Z,102512.12
2023-09-25T00:05:34.643Z,102507.59
2023-09-25T00:06:05.115Z,102508.09
2023-09-25T00:06:35.546Z,102506.09
2023-09-25T00:07:05.935Z,102505.23
2023-09-25T00:07:36.359Z,102508.29
2023-09-25T00:08:06.776Z,102508.29
2023-09-25T00:08:37.212Z,102506.08
2023-09-25T00:09:07.683Z,102505.09
2023-09-25T00:09:38.121Z,102502.89
2023-09-25T00:10:08.507Z,102503.06
2023-09-25T00:10:38.924Z,102503.39
2023-09-25T00:11:09.339Z,102505.08
2023-09-25T00:11:39.768Z,102504.89
2023-09-25T00:12:10.207Z,102500.19
2023-09-25T00:12:40.634Z,102504.05
2023-09-25T00:13:11.033Z,102504.05
2023-09-25T00:13:41.490Z,102504.06
2023-09-25T00:14:11.892Z,102505.05
2023-09-25T00:14:42.543Z,102502.38
2023-09-25T00:15:13.022Z,102500.88
2023-09-25T00:15:43.541Z,102501.55
2023-09-25T00:16:14.038Z,102497.83
2023-09-25T00:16:44.454Z,102499.87
2023-09-25T00:17:14.931Z,102500.35
2023-09-25T00:17:45.369Z,102497.50
2023-09-25T00:18:15.911Z,102500.16
2023-09-25T00:18:46.432Z,102498.65
2023-09-25T00:19:16.960Z,102499.84
2023-09-25T00:19:47.395Z,102498.78
2023-09-25T00:20:17.826Z,102503.38
2023-09-25T00:20:48.239Z,102501.52
2023-09-25T00:21:18.752Z,102498.66
2023-09-25T00:21:49.118Z,102499.68
2023-09-25T00:22:19.535Z,102499.01
2023-09-25T00:22:49.974Z,102500.20
2023-09-25T00:23:20.408Z,102498.16
2023-09-25T00:23:50.827Z,102499.84
2023-09-25T00:24:21.316Z,102498.64
2023-09-25T00:24:51.695Z,102499.16
2023-09-25T00:25:22.131Z,102504.03
2023-09-25T00:25:52.557Z,102499.00
2023-09-25T00:26:22.977Z,102497.47
2023-09-25T00:26:53.406Z,102500.00
2023-09-25T00:27:23.899Z,102497.48
2023-09-25T00:27:54.478Z,102498.47
2023-09-25T00:28:24.869Z,102495.96
2023-09-25T00:28:55.284Z,102495.95
2023-09-25T00:29:25.711Z,102493.45
2023-09-25T00:29:56.138Z,102496.47
2023-09-25T00:30:26.671Z,102494.78
2023-09-25T00:30:57.048Z,102494.77
2023-09-25T00:31:27.472Z,102494.28
2023-09-25T00:31:57.893Z,102489.73
2023-09-25T00:32:28.333Z,102494.61
2023-09-25T00:32:58.939Z,102494.27
2023-09-25T00:33:29.397Z,102493.77
2023-09-25T00:33:59.982Z,102489.73
2023-09-25T00:34:30.568Z,102496.31
2023-09-25T00:35:01.004Z,102495.80
2023-09-25T00:35:31.422Z,102496.30
2023-09-25T00:36:01.955Z,102492.77
2023-09-25T00:36:32.398Z,102493.77
2023-09-25T00:37:02.787Z,102493.62
2023-09-25T00:37:33.217Z,102489.91
2023-09-25T00:38:03.649Z,102490.75
2023-09-25T00:38:34.055Z,102489.75
2023-09-25T00:39:04.523Z,102490.08
2023-09-25T00:39:34.924Z,102489.77
2023-09-25T00:40:05.330Z,102493.60
2023-09-25T00:40:35.757Z,102487.55
2023-09-25T00:41:06.182Z,102492.23
2023-09-25T00:41:36.607Z,102490.05
2023-09-25T00:42:07.096Z,102490.73
2023-09-25T00:42:37.564Z,102491.59
2023-09-25T00:43:08.023Z,102488.05
2023-09-25T00:43:38.436Z,102494.11
2023-09-25T00:44:08.848Z,102489.59
2023-09-25T00:44:39.266Z,102489.06
2023-09-25T00:45:09.707Z,102488.41
2023-09-25T00:45:40.175Z,102494.30
2023-09-25T00:46:10.617Z,102495.95
2023-09-25T00:46:41.022Z,102493.62
2023-09-25T00:47:11.456Z,102493.45
2023-09-25T00:47:41.900Z,102492.42
2023-09-25T00:48:12.430Z,102494.12
2023-09-25T00:48:42.925Z,102496.28
2023-09-25T00:49:13.365Z,102497.13
2023-09-25T00:49:43.795Z,102497.15
2023-09-25T00:50:14.198Z,102498.48
2023-09-25T00:50:44.625Z,102494.11
2023-09-25T00:51:15.072Z,102491.91
2023-09-25T00:51:45.566Z,102496.94
2023-09-25T00:52:15.976Z,102493.27
2023-09-25T00:52:46.388Z,102496.47
2023-09-25T00:53:16.806Z,102489.91
2023-09-25T00:53:47.373Z,102497.98
2023-09-25T00:54:25.513Z,102494.09
2023-09-25T00:54:53.152Z,102493.23
2023-09-25T00:55:23.539Z,102494.91
2023-09-25T00:55:53.978Z,102490.38
2023-09-25T00:56:24.396Z,102490.55
2023-09-25T00:56:54.819Z,102494.59
2023-09-25T00:57:25.275Z,102489.70
2023-09-25T00:57:55.689Z,102490.92
2023-09-25T00:58:26.135Z,102491.78
2023-09-25T00:58:56.545Z,102487.41
2023-09-25T00:59:26.967Z,102490.59
2023-09-25T00:59:57.389Z,102488.73
2023-09-25T01:00:27.858Z,102491.08
2023-09-25T01:00:58.355Z,102491.90
2023-09-25T01:01:28.893Z,102488.22
2023-09-25T01:01:59.306Z,102487.70
2023-09-25T01:02:29.736Z,102489.23
2023-09-25T01:03:00.212Z,102489.05
2023-09-25T01:03:30.616Z,102490.75
2023-09-25T01:04:01.156Z,102488.37
2023-09-25T01:04:31.629Z,102489.92
2023-09-25T01:05:02.112Z,102489.39
2023-09-25T01:05:32.502Z,102492.08
2023-09-25T01:06:02.985Z,102489.73
2023-09-25T01:06:33.421Z,102489.38
2023-09-25T01:07:03.807Z,102492.73
2023-09-25T01:07:34.227Z,102489.41
2023-09-25T01:08:04.653Z,102488.74
2023-09-25T01:08:35.095Z,102491.27
2023-09-25T01:09:05.530Z,102487.88
2023-09-25T01:09:35.969Z,102484.88
2023-09-25T01:10:06.670Z,102485.55
2023-09-25T01:10:37.235Z,102485.86
2023-09-25T01:11:07.665Z,102484.01
2023-09-25T01:11:38.091Z,102483.01
2023-09-25T01:12:08.555Z,102483.97
2023-09-25T01:12:39.045Z,102482.80
2023-09-25T01:13:09.568Z,102479.62
2023-09-25T01:13:39.995Z,102478.11
2023-09-25T01:14:10.411Z,102481.83
2023-09-25T01:14:40.840Z,102478.80
2023-09-25T01:15:11.296Z,102480.50
2023-09-25T01:15:41.738Z,102477.61
2023-09-25T01:16:12.254Z,102479.67
2023-09-25T01:16:42.709Z,102478.31
2023-09-25T01:17:13.151Z,102474.94
2023-09-25T01:17:43.582Z,102473.58
2023-09-25T01:18:14.027Z,102474.11
2023-09-25T01:18:44.476Z,102474.58
2023-09-25T01:19:14.926Z,102477.95
2023-09-25T01:19:45.316Z,102472.92
2023-09-25T01:20:15.728Z,102477.97
2023-09-25T01:20:46.168Z,102472.73
2023-09-25T01:21:16.613Z,102474.77
2023-09-25T01:21:47.020Z,102474.08
2023-09-25T01:22:17.446Z,102479.83
2023-09-25T01:22:47.974Z,102473.92
2023-09-25T01:23:18.389Z,102475.95
2023-09-25T01:23:48.813Z,102473.25
2023-09-25T01:24:19.348Z,102470.88
2023-09-25T01:24:49.739Z,102467.52
2023-09-25T01:25:20.202Z,102469.03
2023-09-25T01:25:50.604Z,102472.21
2023-09-25T01:26:21.024Z,102470.88
2023-09-25T01:26:51.443Z,102469.35
2023-09-25T01:27:21.922Z,102470.20
2023-09-25T01:27:52.333Z,102469.06
2023-09-25T01:28:22.760Z,102467.03
2023-09-25T01:28:53.169Z,102469.55
2023-09-25T01:29:23.594Z,102469.03
2023-09-25T01:29:54.010Z,102470.88
2023-09-25T01:30:24.490Z,102470.38
2023-09-25T01:30:54.878Z,102470.22
2023-09-25T01:31:25.307Z,102468.38
2023-09-25T01:31:55.736Z,102473.24
2023-09-25T01:32:26.200Z,102469.02
2023-09-25T01:32:56.715Z,102469.70
2023-09-25T01:33:27.232Z,102470.88
2023-09-25T01:33:57.717Z,102469.86
2023-09-25T01:34:28.283Z,102473.06
2023-09-25T01:34:58.656Z,102471.22
2023-09-25T01:35:29.092Z,102469.70
2023-09-25T01:35:59.507Z,102470.55
2023-09-25T01:36:29.979Z,102471.73
2023-09-25T01:37:00.357Z,102471.41
2023-09-25T01:37:30.771Z,102472.74
2023-09-25T01:38:01.220Z,102472.25
2023-09-25T01:38:31.625Z,102472.61
2023-09-25T01:39:02.049Z,102472.08
2023-09-25T01:39:32.495Z,102471.23
2023-09-25T01:40:02.900Z,102477.47
2023-09-25T01:40:33.336Z,102467.89
2023-09-25T01:41:03.750Z,102470.74
2023-09-25T01:41:34.183Z,102468.88
2023-09-25T01:42:04.663Z,102469.23
2023-09-25T01:42:35.093Z,102468.86
2023-09-25T01:43:05.471Z,102468.02
2023-09-25T01:43:35.891Z,102465.84
2023-09-25T01:44:06.326Z,102466.50
2023-09-25T01:44:36.913Z,102467.52
2023-09-25T01:45:07.399Z,102464.52
2023-09-25T01:45:37.854Z,102467.03
2023-09-25T01:46:08.295Z,102463.86
2023-09-25T01:46:38.744Z,102464.19
2023-09-25T01:47:09.136Z,102466.00
2023-09-25T01:47:39.623Z,102464.34
2023-09-25T01:48:10.051Z,102463.64
2023-09-25T01:48:40.632Z,102464.14
2023-09-25T01:49:11.103Z,102465.67
2023-09-25T01:49:41.638Z,102462.65
2023-09-25T01:50:12.061Z,102461.98
2023-09-25T01:50:42.475Z,102468.89
2023-09-25T01:51:12.923Z,102464.85
2023-09-25T01:51:43.396Z,102463.18
2023-09-25T01:52:13.800Z,102464.03
2023-09-25T01:52:44.214Z,102463.69
2023-09-25T01:53:14.634Z,102463.51
2023-09-25T01:53:45.059Z,102462.00
2023-09-25T01:54:15.510Z,102464.50
2023-09-25T01:54:45.964Z,102461.31
2023-09-25T01:55:16.377Z,102455.92
2023-09-25T01:55:46.796Z,102457.76
2023-09-25T01:56:17.224Z,102458.27
2023-09-25T01:56:47.641Z,102456.75
2023-09-25T01:57:18.078Z,102459.79
2023-09-25T01:57:48.496Z,102454.92
2023-09-25T01:58:18.914Z,102457.44
2023-09-25T01:58:49.586Z,102454.75
2023-09-25T01:59:20.117Z,102454.25
2023-09-25T01:59:50.541Z,102456.08
2023-09-25T02:00:21.010Z,102458.12
2023-09-25T02:00:51.491Z,102454.92
2023-09-25T02:01:21.899Z,102454.23
2023-09-25T02:01:52.316Z,102455.06
2023-09-25T02:02:22.727Z,102455.93
2023-09-25T02:02:53.301Z,102455.77
2023-09-25T02:03:23.888Z,102455.58
2023-09-25T02:03:54.654Z,102456.25
2023-09-25T02:04:25.549Z,102458.74
2023-09-25T02:04:56.604Z,102459.59
2023-09-25T02:05:27.318Z,102457.71
2023-09-25T02:05:57.801Z,102460.09
2023-09-25T02:06:28.316Z,102459.25
2023-09-25T02:06:58.721Z,102460.59
2023-09-25T02:07:29.157Z,102461.62
2023-09-25T02:07:59.565Z,102463.47
2023-09-25T02:08:29.992Z,102461.28
2023-09-25T02:09:00.424Z,102462.97
2023-09-25T02:09:30.936Z,102463.45
2023-09-25T02:10:01.326Z,102464.12
2023-09-25T02:10:31.732Z,102464.31
2023-09-25T02:11:02.157Z,102465.97
2023-09-25T02:11:32.572Z,102465.34
2023-09-25T02:12:03.005Z,102467.31
2023-09-25T02:12:33.484Z,102466.52
2023-09-25T02:13:03.864Z,102469.19
2023-09-25T02:13:34.313Z,102468.00
2023-09-25T02:14:04.733Z,102471.88
2023-09-25T02:14:35.159Z,102470.70
2023-09-25T02:15:05.645Z,102469.36
2023-09-25T02:15:36.128Z,102473.21
2023-09-25T02:16:06.551Z,102470.88
2023-09-25T02:16:36.987Z,102471.73
2023-09-25T02:17:07.380Z,102466.84
2023-09-25T02:17:37.857Z,102471.05
2023-09-25T02:18:08.376Z,102472.91
2023-09-25T02:18:38.868Z,102472.05
2023-09-25T02:19:09.277Z,102472.55
2023-09-25T02:19:39.703Z,102472.05
2023-09-25T02:20:10.143Z,102466.65
2023-09-25T02:20:40.553Z,102466.50
2023-09-25T02:21:11.104Z,102468.33
2023-09-25T02:21:41.480Z,102465.12
2023-09-25T02:22:11.905Z,102466.98
2023-09-25T02:22:42.337Z,102466.48
2023-09-25T02:23:12.773Z,102468.81
2023-09-25T02:23:43.210Z,102470.81
2023-09-25T02:24:13.630Z,102467.64
2023-09-25T02:24:44.059Z,102466.44
2023-09-25T02:25:14.463Z,102465.61
2023-09-25T02:25:44.894Z,102464.09
2023-09-25T02:26:15.307Z,102464.79
2023-09-25T02:26:45.739Z,102462.42
2023-09-25T02:27:16.181Z,102466.12
2023-09-25T02:27:46.831Z,102463.09
2023-09-25T02:28:17.434Z,102462.92
2023-09-25T02:28:48.133Z,102459.25
2023-09-25T02:29:18.687Z,102462.45
2023-09-25T02:29:49.132Z,102460.77
2023-09-25T02:30:19.564Z,102465.63
2023-09-25T02:30:50.011Z,102461.09
2023-09-25T02:31:20.456Z,102461.08
2023-09-25T02:31:50.911Z,102460.06
2023-09-25T02:32:21.345Z,102460.06
2023-09-25T02:32:51.757Z,102462.09
2023-09-25T02:33:22.236Z,102463.93
2023-09-25T02:33:52.618Z,102461.58
2023-09-25T02:34:23.038Z,102462.42
2023-09-25T02:34:53.465Z,102462.59
2023-09-25T02:35:23.914Z,102461.91
2023-09-25T02:35:54.319Z,102460.90
2023-09-25T02:36:24.764Z,102461.91
2023-09-25T02:36:55.166Z,102461.73
2023-09-25T02:37:25.603Z,102460.58
2023-09-25T02:37:56.046Z,102464.62
2023-09-25T02:38:26.466Z,102460.91
2023-09-25T02:38:56.886Z,102460.07
2023-09-25T02:39:27.344Z,102464.27
2023-09-25T02:39:57.736Z,102459.25
2023-09-25T02:40:28.165Z,102463.78
2023-09-25T02:40:58.582Z,102461.91
2023-09-25T02:41:29.007Z,102464.09
2023-09-25T02:41:59.438Z,102462.59
2023-09-25T02:42:29.926Z,102461.73
2023-09-25T02:43:00.323Z,102463.25
2023-09-25T02:43:30.772Z,102463.12
2023-09-25T02:44:01.168Z,102461.76
2023-09-25T02:44:31.586Z,102461.25
2023-09-25T02:45:02.037Z,102460.09
2023-09-25T02:45:32.506Z,102463.61
2023-09-25T02:46:03.060Z,102459.59
2023-09-25T02:46:33.593Z,102461.78
2023-09-25T02:47:03.999Z,102458.41
2023-09-25T02:47:34.438Z,102456.91
2023-09-25T02:48:04.921Z,102460.91
2023-09-25T02:48:35.343Z,102458.69
2023-09-25T02:49:05.885Z,102459.38
2023-09-25T02:49:36.295Z,102455.72
2023-09-25T02:50:06.745Z,102460.42
2023-09-25T02:50:37.215Z,102460.23
2023-09-25T02:51:07.664Z,102458.56
2023-09-25T02:51:38.138Z,102460.91
2023-09-25T02:52:08.539Z,102456.36
2023-09-25T02:52:38.979Z,102456.03
2023-09-25T02:53:09.390Z,102454.36
2023-09-25T02:53:39.806Z,102453.38
2023-09-25T02:54:10.256Z,102451.19
2023-09-25T02:54:40.733Z,102454.53
2023-09-25T02:55:11.116Z,102452.88
2023-09-25T02:55:41.546Z,102451.49
2023-09-25T02:56:11.966Z,102452.70
2023-09-25T02:56:42.397Z,102448.64
2023-09-25T02:57:12.850Z,102451.67
2023-09-25T02:57:43.290Z,102447.46
2023-09-25T02:58:13.693Z,102449.14
2023-09-25T02:58:44.116Z,102451.34
2023-09-25T02:59:14.545Z,102451.01
2023-09-25T02:59:44.957Z,102449.98
2023-09-25T03:00:15.419Z,102453.02
2023-09-25T03:00:45.880Z,102451.16
2023-09-25T03:01:16.282Z,102451.48
2023-09-25T03:01:46.733Z,102453.84
2023-09-25T03:02:17.244Z,102452.50
2023-09-25T03:02:47.715Z,102453.98
2023-09-25T03:03:18.232Z,102458.54
2023-09-25T03:03:48.745Z,102456.36
2023-09-25T03:04:19.165Z,102455.67
2023-09-25T03:04:49.596Z,102450.81
2023-09-25T03:05:19.997Z,102453.81
2023-09-25T03:05:50.535Z,102451.65
2023-09-25T03:06:21.013Z,102453.64
2023-09-25T03:06:51.459Z,102455.36
2023-09-25T03:07:21.883Z,102458.03
2023-09-25T03:07:52.317Z,102459.22
2023-09-25T03:08:22.743Z,102462.24
2023-09-25T03:08:53.177Z,102463.94
2023-09-25T03:09:23.674Z,102460.73
2023-09-25T03:09:54.059Z,102457.55
2023-09-25T03:10:24.493Z,102463.44
2023-09-25T03:10:54.905Z,102459.43
2023-09-25T03:11:25.362Z,102463.80
2023-09-25T03:11:55.773Z,102460.73
2023-09-25T03:12:26.212Z,102461.77
2023-09-25T03:12:56.650Z,102463.45
2023-09-25T03:13:27.040Z,102463.92
2023-09-25T03:13:57.460Z,102466.11
2023-09-25T03:14:27.882Z,102463.94
2023-09-25T03:14:58.306Z,102459.88
2023-09-25T03:15:28.762Z,102463.06
2023-09-25T03:15:59.243Z,102463.41
2023-09-25T03:16:29.737Z,102466.95
2023-09-25T03:17:00.138Z,102465.94
2023-09-25T03:17:30.652Z,102467.12
2023-09-25T03:18:01.085Z,102467.12
2023-09-25T03:18:31.511Z,102462.72
2023-09-25T03:19:01.974Z,102468.44
2023-09-25T03:19:32.385Z,102466.59
2023-09-25T03:20:02.806Z,102467.44
2023-09-25T03:20:33.226Z,102463.21
2023-09-25T03:21:03.679Z,102466.58
2023-09-25T03:21:34.115Z,102466.39
2023-09-25T03:22:04.509Z,102466.77
2023-09-25T03:22:34.940Z,102465.08
2023-09-25T03:23:05.399Z,102468.44
2023-09-25T03:23:35.832Z,102465.08
2023-09-25T03:24:06.248Z,102467.94
2023-09-25T03:24:36.711Z,102464.75
2023-09-25T03:25:07.128Z,102461.20
2023-09-25T03:25:37.568Z,102465.09
2023-09-25T03:26:07.991Z,102467.80
2023-09-25T03:26:38.415Z,102466.95
2023-09-25T03:27:08.865Z,102463.77
2023-09-25T03:27:39.307Z,102465.25
2023-09-25T03:28:09.883Z,102465.43
2023-09-25T03:28:40.301Z,102464.92
2023-09-25T03:29:10.733Z,102462.06
2023-09-25T03:29:41.160Z,102461.55
2023-09-25T03:30:11.614Z,102461.38
2023-09-25T03:30:42.059Z,102459.54
2023-09-25T03:31:12.503Z,102465.25
2023-09-25T03:31:42.948Z,102462.56
2023-09-25T03:32:13.338Z,102463.39
2023-09-25T03:32:43.784Z,102461.36
2023-09-25T03:33:14.215Z,102460.39
2023-09-25T03:33:44.670Z,102464.93
2023-09-25T03:34:15.054Z,102461.04
2023-09-25T03:34:45.486Z,102462.03
2023-09-25T03:35:15.902Z,102463.89
2023-09-25T03:35:46.337Z,102460.72
2023-09-25T03:36:16.808Z,102461.20
2023-09-25T03:36:47.307Z,102463.56
2023-09-25T03:37:19.125Z,102464.20
2023-09-25T03:37:50.174Z,102463.05
2023-09-25T03:38:20.614Z,102462.53
2023-09-25T03:38:51.037Z,102466.73
2023-09-25T03:39:21.489Z,102468.25
2023-09-25T03:39:51.895Z,102464.20
2023-09-25T03:40:22.339Z,102466.23
2023-09-25T03:40:52.755Z,102467.92
2023-09-25T03:41:23.168Z,102466.24
2023-09-25T03:41:53.603Z,102468.95
2023-09-25T03:42:24.120Z,102469.27
2023-09-25T03:42:54.537Z,102465.75
2023-09-25T03:43:24.958Z,102466.25
2023-09-25T03:43:55.393Z,102467.45
2023-09-25T03:44:25.812Z,102465.42
2023-09-25T03:44:56.259Z,102464.71
2023-09-25T03:45:26.738Z,102464.56
2023-09-25T03:45:57.183Z,102463.70
2023-09-25T03:46:27.612Z,102463.36
2023-09-25T03:46:58.044Z,102465.72
2023-09-25T03:47:28.490Z,102462.17
2023-09-25T03:47:58.914Z,102461.99
2023-09-25T03:48:29.390Z,102462.52
2023-09-25T03:48:59.873Z,102463.37
2023-09-25T03:49:30.287Z,102459.81
2023-09-25T03:50:00.724Z,102460.35
2023-09-25T03:50:31.140Z,102462.53
2023-09-25T03:51:01.562Z,102464.36
2023-09-25T03:51:32.060Z,102465.38
2023-09-25T03:52:02.451Z,102461.70
2023-09-25T03:52:32.884Z,102463.22
2023-09-25T03:53:03.305Z,102466.38
2023-09-25T03:53:33.724Z,102461.86
2023-09-25T03:54:04.160Z,102464.70
2023-09-25T03:54:34.615Z,102462.19
2023-09-25T03:55:05.061Z,102460.50
2023-09-25T03:55:35.478Z,102464.38
2023-09-25T03:56:05.902Z,102463.73
2023-09-25T03:56:36.326Z,102462.73
2023-09-25T03:57:06.761Z,102456.69
2023-09-25T03:57:37.183Z,102458.52
2023-09-25T03:58:07.597Z,102460.03
2023-09-25T03:58:38.018Z,102457.16
2023-09-25T03:59:08.458Z,102459.36
2023-09-25T03:59:38.883Z,102464.05
2023-09-25T04:00:09.358Z,102461.36
2023-09-25T04:00:39.884Z,102460.34
2023-09-25T04:01:10.296Z,102463.52
2023-09-25T04:01:40.830Z,102463.03
2023-09-25T04:02:11.277Z,102462.20
2023-09-25T04:02:41.749Z,102461.19
2023-09-25T04:03:12.236Z,102463.38
2023-09-25T04:03:42.733Z,102465.23
2023-09-25T04:04:13.323Z,102462.87
2023-09-25T04:04:43.934Z,102462.38
2023-09-25T04:05:14.347Z,102462.02
2023-09-25T04:05:44.770Z,102463.38
2023-09-25T04:06:15.208Z,102461.66
2023-09-25T04:06:45.650Z,102459.98
2023-09-25T04:07:16.040Z,102460.50
2023-09-25T04:07:46.460Z,102463.20
2023-09-25T04:08:16.883Z,102462.69
2023-09-25T04:08:47.385Z,102460.51
2023-09-25T04:09:17.824Z,102461.50
2023-09-25T04:09:48.267Z,102457.95
2023-09-25T04:10:18.662Z,102460.64
2023-09-25T04:10:49.090Z,102457.97
2023-09-25T04:11:19.530Z,102458.81
2023-09-25T04:11:49.950Z,102455.27
2023-09-25T04:12:20.478Z,102460.83
2023-09-25T04:12:50.909Z,102453.23
2023-09-25T04:13:21.300Z,102454.41
2023-09-25T04:13:51.732Z,102453.73
2023-09-25T04:14:22.164Z,102453.92
2023-09-25T04:14:52.586Z,102459.27
2023-09-25T04:15:23.064Z,102456.62
2023-09-25T04:15:53.548Z,102458.80
2023-09-25T04:16:24.024Z,102453.91
2023-09-25T04:16:54.435Z,102456.28
2023-09-25T04:17:24.827Z,102455.29
2023-09-25T04:17:55.269Z,102455.62
2023-09-25T04:18:25.777Z,102456.65
2023-09-25T04:18:56.283Z,102456.81
2023-09-25T04:19:26.772Z,102458.31
2023-09-25T04:19:57.337Z,102456.64
2023-09-25T04:20:27.771Z,102456.98
2023-09-25T04:20:58.191Z,102459.00
2023-09-25T04:21:28.629Z,102453.97
2023-09-25T04:21:59.057Z,102452.94
2023-09-25T04:22:29.452Z,102452.28
2023-09-25T04:22:59.875Z,102452.44
2023-09-25T04:23:30.310Z,102454.80
2023-09-25T04:24:00.729Z,102454.12
2023-09-25T04:24:31.154Z,102455.12
2023-09-25T04:25:01.595Z,102457.80
2023-09-25T04:25:31.996Z,102458.13
2023-09-25T04:26:02.580Z,102459.50
2023-09-25T04:26:32.973Z,102458.16
2023-09-25T04:27:03.388Z,102458.31
2023-09-25T04:27:33.876Z,102456.30
2023-09-25T04:28:04.256Z,102455.98
2023-09-25T04:28:34.704Z,102459.34
2023-09-25T04:29:05.135Z,102456.64
2023-09-25T04:29:35.550Z,102454.14
2023-09-25T04:30:05.989Z,102455.97
2023-09-25T04:30:36.458Z,102456.62
2023-09-25T04:31:06.900Z,102457.30
2023-09-25T04:31:37.338Z,102456.61
2023-09-25T04:32:07.735Z,102458.12
2023-09-25T04:32:38.265Z,102458.48
2023-09-25T04:33:08.829Z,102460.50
2023-09-25T04:33:39.307Z,102462.52
2023-09-25T04:34:09.742Z,102461.49
2023-09-25T04:34:40.161Z,102460.98
2023-09-25T04:35:10.581Z,102458.96
2023-09-25T04:35:41.004Z,102458.62
2023-09-25T04:36:11.616Z,102461.78
2023-09-25T04:36:42.372Z,102461.27
2023-09-25T04:37:12.799Z,102459.41
2023-09-25T04:37:43.218Z,102461.95
2023-09-25T04:38:13.661Z,102462.28
2023-09-25T04:38:44.082Z,102463.11
2023-09-25T04:39:14.523Z,102468.34
2023-09-25T04:39:44.942Z,102464.65
2023-09-25T04:40:15.359Z,102465.51
2023-09-25T04:40:45.781Z,102466.34
2023-09-25T04:41:16.213Z,102466.84
2023-09-25T04:41:46.651Z,102467.88
2023-09-25T04:42:17.070Z,102469.55
2023-09-25T04:42:47.573Z,102470.06
2023-09-25T04:43:17.976Z,102469.41
2023-09-25T04:43:48.420Z,102469.55
2023-09-25T04:44:19.748Z,102470.92
2023-09-25T04:44:50.149Z,102467.39
2023-09-25T04:45:20.643Z,102469.55
2023-09-25T04:45:51.172Z,102465.84
2023-09-25T04:46:21.657Z,102470.72
2023-09-25T04:46:52.146Z,102468.39
2023-09-25T04:47:22.583Z,102468.05
2023-09-25T04:47:53.361Z,102469.38
2023-09-25T04:48:23.909Z,102469.03
2023-09-25T04:48:54.344Z,102469.86
2023-09-25T04:49:24.775Z,102468.52
2023-09-25T04:49:55.196Z,102472.05
2023-09-25T04:50:25.630Z,102472.03
2023-09-25T04:50:56.051Z,102471.69
2023-09-25T04:51:26.521Z,102475.93
2023-09-25T04:51:56.973Z,102471.56
2023-09-25T04:52:27.419Z,102474.77
2023-09-25T04:52:57.813Z,102473.75
2023-09-25T04:53:28.237Z,102469.36
2023-09-25T04:53:58.654Z,102469.71
2023-09-25T04:54:29.161Z,102474.23
2023-09-25T04:54:59.546Z,102471.38
2023-09-25T04:55:29.967Z,102470.68
2023-09-25T04:56:00.386Z,102471.36
2023-09-25T04:56:30.810Z,102473.21
2023-09-25T04:57:01.273Z,102470.69
2023-09-25T04:57:31.737Z,102475.06
2023-09-25T04:58:02.272Z,102473.38
2023-09-25T04:58:32.879Z,102473.52
2023-09-25T04:59:03.349Z,102473.01
2023-09-25T04:59:33.760Z,102467.50
2023-09-25T05:00:04.201Z,102468.84
2023-09-25T05:00:34.636Z,102466.50
2023-09-25T05:01:05.119Z,102467.70
2023-09-25T05:01:35.558Z,102473.73
2023-09-25T05:02:06.010Z,102468.53
2023-09-25T05:02:36.475Z,102468.37
2023-09-25T05:03:06.966Z,102475.93
2023-09-25T05:03:39.052Z,102470.37
2023-09-25T05:04:11.091Z,102473.42
2023-09-25T05:04:41.509Z,102468.86
2023-09-25T05:05:11.931Z,102472.36
2023-09-25T05:05:42.351Z,102474.55
2023-09-25T05:06:12.917Z,102469.67
2023-09-25T05:06:43.453Z,102471.36
2023-09-25T05:07:13.958Z,102470.70
2023-09-25T05:07:44.391Z,102467.86
2023-09-25T05:08:14.802Z,102470.52
2023-09-25T05:08:45.222Z,102471.53
2023-09-25T05:09:15.681Z,102467.36
2023-09-25T05:09:46.122Z,102471.70
2023-09-25T05:10:16.521Z,102473.88
2023-09-25T05:10:46.945Z,102471.52
2023-09-25T05:11:17.397Z,102472.22
2023-09-25T05:11:47.799Z,102475.88
2023-09-25T05:12:18.260Z,102475.58
2023-09-25T05:12:48.709Z,102470.68
2023-09-25T05:13:19.165Z,102472.03
2023-09-25T05:13:49.608Z,102469.19
2023-09-25T05:14:20.032Z,102472.52
2023-09-25T05:14:50.448Z,102467.48
2023-09-25T05:15:20.915Z,102468.64
2023-09-25T05:15:51.355Z,102469.65
2023-09-25T05:16:21.964Z,102465.63
2023-09-25T05:16:52.555Z,102466.62
2023-09-25T05:17:22.943Z,102469.30
2023-09-25T05:17:53.409Z,102469.79
2023-09-25T05:18:23.881Z,102464.61
2023-09-25T05:18:54.342Z,102466.30
2023-09-25T05:19:24.738Z,102469.65
2023-09-25T05:19:55.169Z,102464.30
2023-09-25T05:20:25.625Z,102465.13
2023-09-25T05:20:56.047Z,102467.30
2023-09-25T05:21:26.537Z,102462.95
2023-09-25T05:21:56.975Z,102463.95
2023-09-25T05:22:27.373Z,102467.18
2023-09-25T05:22:57.822Z,102461.42
2023-09-25T05:23:28.218Z,102463.96
2023-09-25T05:23:58.640Z,102464.97
2023-09-25T05:24:29.169Z,102464.12
2023-09-25T05:24:59.559Z,102465.81
2023-09-25T05:25:29.991Z,102464.97
2023-09-25T05:26:00.427Z,102464.15
2023-09-25T05:26:30.857Z,102463.80
2023-09-25T05:27:01.278Z,102464.80
2023-09-25T05:27:31.730Z,102464.28
2023-09-25T05:28:02.125Z,102460.39
2023-09-25T05:28:32.554Z,102465.40
2023-09-25T05:29:02.979Z,102466.98
2023-09-25T05:29:33.390Z,102463.28
2023-09-25T05:30:03.812Z,102463.29
2023-09-25T05:30:34.279Z,102462.42
2023-09-25T05:31:04.804Z,102462.45
2023-09-25T05:31:35.267Z,102461.61
2023-09-25T05:32:05.664Z,102458.92
2023-09-25T05:32:36.123Z,102458.08
2023-09-25T05:33:06.557Z,102461.30
2023-09-25T05:33:36.974Z,102461.12
2023-09-25T05:34:07.366Z,102461.46
2023-09-25T05:34:37.793Z,102460.92
2023-09-25T05:35:08.208Z,102466.08
2023-09-25T05:35:38.643Z,102471.79
2023-09-25T05:36:09.079Z,102467.58
2023-09-25T05:36:39.565Z,102468.23
2023-09-25T05:37:09.959Z,102471.27
2023-09-25T05:37:40.383Z,102472.08
2023-09-25T05:38:10.850Z,102468.74
2023-09-25T05:38:41.246Z,102471.09
2023-09-25T05:39:11.701Z,102469.77
2023-09-25T05:39:42.113Z,102472.51
2023-09-25T05:40:12.527Z,102473.52
2023-09-25T05:40:42.964Z,102474.35
2023-09-25T05:41:13.387Z,102477.88
2023-09-25T05:41:43.812Z,102476.37
2023-09-25T05:42:14.258Z,102477.88
2023-09-25T05:42:44.700Z,102479.74
2023-09-25T05:43:15.109Z,102478.73
2023-09-25T05:43:45.528Z,102480.89
2023-09-25T05:44:15.945Z,102479.41
2023-09-25T05:44:46.367Z,102476.69
2023-09-25T05:45:16.852Z,102483.27
2023-09-25T05:45:47.288Z,102481.08
2023-09-25T05:46:17.744Z,102483.41
2023-09-25T05:46:48.239Z,102482.92
2023-09-25T05:47:18.614Z,102489.84
2023-09-25T05:47:49.115Z,102485.27